Wednesday, September 19, 2018, 3:02 PM EDT
Back to Local

KMRB, Martinsburg Eastern Wv Reg

Location: Martinsburg, WV, United States Lat: 39.4
Local Time: 3:02 PM EDT (19:02 GMT) Lon: -77.983
Time Zone: US/Eastern Elev: 557 ft

Show me the last for .
Show Decoded

2018-09-19 13:53 METAR KMRB 191753Z 33011KT 10SM FEW037 29/20 A2997 RMK AO2 SLP144 T02890200
                 10289 20183 58003 =
2018-09-19 12:53 METAR KMRB 191653Z 35010KT 10SM FEW032 BKN080 28/20 A2998 RMK AO2 SLP146
                 T02830200 =
2018-09-19 12:13 METAR KMRB 191613Z 34008KT 10SM BKN035 27/21 A2998 RMK AO2 T02720206 $ =
2018-09-19 11:58 METAR KMRB 191558Z 31006KT 1 1/2SM HZ FEW030 27/20 A2998 RMK AO2 T02720200 $ =
2018-09-19 11:53 METAR KMRB 191553Z 36008KT 10SM FEW030 27/20 A2998 RMK AO2 SLP147 T02720200 $ =
2018-09-19 10:53 METAR KMRB 191453Z 36009KT 10SM CLR 27/20 A2998 RMK AO2 SLP147 T02670200 53005 $
                 =
2018-09-19 09:53 METAR KMRB 191353Z 03003KT 10SM CLR 24/20 A2996 RMK AO2 SLP142 T02440200 $ =
2018-09-19 08:53 METAR KMRB 191253Z 00000KT 7SM CLR 22/19 A2996 RMK AO2 SLP141 T02170194 $ =
2018-09-19 08:48 METAR KMRB 191248Z 00000KT 1 1/2SM BR CLR 22/19 A2996 RMK AO2 TWR VIS 6 $ =
2018-09-19 08:22 METAR KMRB 191222Z 00000KT 4SM BR CLR 20/19 A2996 RMK AO2 T02000189 =
2018-09-19 08:17 METAR KMRB 191217Z 00000KT 1 1/4SM BR CLR 20/19 A2996 RMK AO2 TWR VIS 6
                 T02000189 =
2018-09-19 07:53 METAR KMRB 191153Z 06003KT 4SM BR CLR 18/18 A2994 RMK AO2 SLP135 70006 T01830178
                 10183 20172 53015 =
2018-09-19 06:53 METAR KMRB 191053Z 00000KT 4SM BR CLR 18/17 A2992 RMK AO2 SLP127 T01780172 =
2018-09-19 05:53 METAR KMRB 190953Z AUTO 00000KT 4SM BR CLR 17/17 A2990 RMK AO2 SLP121 T01720172
                 =
2018-09-19 04:53 METAR KMRB 190853Z AUTO 00000KT 5SM BR CLR 18/18 A2990 RMK AO2 SLP119 T01780178
                 53004 =
2018-09-19 03:53 METAR KMRB 190753Z AUTO 00000KT 6SM BR CLR 18/18 A2989 RMK AO2 SLP117 T01830178
                 =
2018-09-19 02:53 METAR KMRB 190653Z AUTO 00000KT 4SM BR CLR 18/18 A2988 RMK AO2 SLP115 T01780178
                 =
2018-09-19 01:53 METAR KMRB 190553Z AUTO 00000KT 6SM BR FEW050 18/18 A2988 RMK AO2 SLP115
                 T01830183 10244 20183 53001 =
2018-09-19 00:53 METAR KMRB 190453Z AUTO 18003KT 6SM BR CLR 19/18 A2988 RMK AO2 SLP114 T01890183
                 402890189 =
2018-09-18 23:53 METAR KMRB 190353Z AUTO 00000KT 10SM CLR 22/19 A2988 RMK AO2 SLP115 T02170189 =
2018-09-18 22:53 METAR KMRB 190253Z 00000KT 10SM CLR 21/19 A2988 RMK AO2 SLP115 T02060189 50008 =
2018-09-18 21:53 METAR KMRB 190153Z 35003KT 10SM CLR 23/18 A2988 RMK AO2 SLP114 T02330183 =
2018-09-18 20:53 METAR KMRB 190053Z 31006KT 10SM CLR 24/18 A2987 RMK AO2 SLP111 T02390178 =
2018-09-18 19:53 METAR KMRB 182353Z 30005KT 10SM CLR 24/18 A2986 RMK AO2 SLP106 T02440178 10289
                 20244 53014 =
2018-09-18 18:53 METAR KMRB 182253Z 32008KT 10SM CLR 27/18 A2984 RMK AO2 SLP101 T02670183 =
2018-09-18 17:53 METAR KMRB 182153Z 34008KT 10SM CLR 28/18 A2983 RMK AO2 SLP096 T02780183 =
2018-09-18 16:53 METAR KMRB 182053Z 32010G18KT 10SM FEW043 28/18 A2982 RMK AO2 SLP092 T02830178
                 55002 =
2018-09-18 15:53 METAR KMRB 181953Z 32012KT 10SM BKN040 29/19 A2981 RMK AO2 SLP088 T02890194 =

Support USWX by starting your Amazon purchase here.